Time;durP1;ratioP1;P1;durP2;ratioP2;P2;SDS_P1;SDS_P2;PMS_P1;PMS_P2;Temp;Humidity;BMP_temperature;BMP_pressure;BME280_temperature;BME280_humidity;BME280_pressure;Samples;Min_cycle;Max_cycle;Signal;HPM_P1;HPM_P2
2023/07/15 00:00:28;;;;;;;8.00;3.35;;;;;;;20.46;62.74;100658.63;7351007;19;19918;-66
2023/07/15 00:02:57;;;;;;;3.75;2.92;;;;;;;20.46;62.87;100661.38;7352535;19;19931;-67
2023/07/15 00:05:35;;;;;;;6.65;2.60;;;;;;;20.42;62.73;100650.09;7375803;19;19927;-65
2023/07/15 00:08:04;;;;;;;4.78;3.05;;;;;;;20.45;62.51;100648.78;7378419;19;19923;-67
2023/07/15 00:10:33;;;;;;;4.18;2.63;;;;;;;20.45;62.28;100652.34;7380397;19;20263;-67
2023/07/15 00:13:02;;;;;;;4.53;2.55;;;;;;;20.44;62.32;100647.97;7383633;19;19956;-66
2023/07/15 00:15:31;;;;;;;7.55;3.50;;;;;;;20.44;61.96;100641.66;7385552;19;19927;-66
2023/07/15 00:18:00;;;;;;;4.55;2.58;;;;;;;20.44;62.41;100637.00;7381431;19;19914;-66
2023/07/15 00:20:31;;;;;;;6.25;3.03;;;;;;;20.43;61.98;100632.59;7382555;19;19942;-67
2023/07/15 00:23:00;;;;;;;3.67;2.78;;;;;;;20.43;62.25;100635.34;7380821;19;20000;-67
2023/07/15 00:25:31;;;;;;;5.13;2.50;;;;;;;20.42;62.28;100627.38;7381619;19;19939;-68
2023/07/15 00:27:59;;;;;;;3.78;3.13;;;;;;;20.41;61.88;100629.28;7383838;19;19926;-67
2023/07/15 00:30:28;;;;;;;5.13;2.92;;;;;;;20.38;62.16;100621.56;7379489;19;19930;-68
2023/07/15 00:32:57;;;;;;;5.85;2.65;;;;;;;20.35;61.80;100620.16;7383300;19;19927;-68
2023/07/15 00:35:28;;;;;;;3.85;2.60;;;;;;;20.32;61.71;100617.09;7386939;19;20245;-68
2023/07/15 00:38:00;;;;;;;6.35;2.90;;;;;;;20.26;61.46;100607.09;7382493;19;19939;-67
2023/07/15 00:40:31;;;;;;;5.00;3.10;;;;;;;20.23;61.81;100602.97;7381280;19;19923;-67
2023/07/15 00:43:29;;;;;;;4.88;3.05;;;;;;;20.14;61.57;100598.16;7382665;19;19990;-68
2023/07/15 00:46:41;;;;;;;6.28;2.60;;;;;;;20.09;61.25;100587.09;7381709;19;19947;-65
2023/07/15 00:49:16;;;;;;;;;;;;;;;19.91;62.03;100588.97;7380667;19;20360;-66
2023/07/15 00:51:50;;;;;;;5.75;2.45;;;;;;;20.09;61.91;100587.09;7381754;19;19988;-66
2023/07/15 00:54:20;;;;;;;5.40;2.88;;;;;;;20.07;61.72;100583.78;7381568;19;19935;-66
2023/07/15 00:56:49;;;;;;;5.65;3.13;;;;;;;20.05;61.31;100578.56;7382375;19;19978;-66
2023/07/15 00:59:19;;;;;;;5.90;2.95;;;;;;;20.04;61.48;100571.44;7379074;19;19918;-66
2023/07/15 01:01:49;;;;;;;6.57;3.15;;;;;;;20.04;61.76;100565.13;7382049;19;19935;-66
2023/07/15 01:04:21;;;;;;;6.32;3.65;;;;;;;20.02;61.44;100557.16;7380473;19;19922;-66
2023/07/15 01:06:49;;;;;;;;;;;;;;;19.79;62.34;100554.56;7385194;19;20573;-66
2023/07/15 01:09:19;;;;;;;5.53;2.67;;;;;;;19.94;61.48;100558.41;7380669;19;20454;-67
2023/07/15 01:11:48;;;;;;;4.50;2.65;;;;;;;19.96;61.41;100555.44;7381050;19;20283;-66
2023/07/15 01:14:17;;;;;;;5.00;2.80;;;;;;;19.97;61.56;100550.78;7385792;19;19922;-66
2023/07/15 01:16:47;;;;;;;9.13;3.28;;;;;;;19.97;61.27;100546.16;7382135;19;19921;-67
2023/07/15 01:19:18;;;;;;;4.45;3.10;;;;;;;19.94;61.47;100544.72;7378111;19;19922;-67
2023/07/15 01:21:52;;;;;;;5.20;2.42;;;;;;;19.95;61.56;100545.56;7380951;19;20491;-66
2023/07/15 01:24:25;;;;;;;5.32;2.97;;;;;;;19.93;61.34;100540.34;7378036;19;20133;-66
2023/07/15 01:27:00;;;;;;;4.10;2.70;;;;;;;19.95;61.22;100531.91;7379986;19;19922;-66
2023/07/15 01:29:29;;;;;;;6.50;2.95;;;;;;;19.94;60.99;100528.31;7380359;19;19922;-66
2023/07/15 01:31:57;;;;;;;4.22;2.65;;;;;;;19.95;61.23;100529.16;7381689;19;19918;-69
2023/07/15 01:34:26;;;;;;;5.07;2.80;;;;;;;19.96;61.26;100532.72;7381319;19;19961;-66
2023/07/15 01:36:56;;;;;;;4.65;2.63;;;;;;;19.97;61.21;100526.19;7386371;19;20601;-66
2023/07/15 01:39:27;;;;;;;4.97;2.88;;;;;;;19.98;61.03;100527.81;7377966;19;19927;-66
2023/07/15 01:41:56;;;;;;;4.80;2.50;;;;;;;19.99;61.24;100532.22;7380085;19;19918;-66
2023/07/15 01:44:25;;;;;;;4.45;2.20;;;;;;;19.97;61.27;100517.97;7380504;19;20270;-66
2023/07/15 01:46:54;;;;;;;4.13;2.15;;;;;;;19.98;60.71;100527.81;7381573;19;19926;-66
2023/07/15 01:49:23;;;;;;;4.57;2.80;;;;;;;19.99;60.82;100519.38;7378760;19;19922;-66
2023/07/15 01:51:52;;;;;;;3.80;2.58;;;;;;;19.99;60.98;100524.84;7376908;19;21017;-66
2023/07/15 01:54:20;;;;;;;4.88;2.90;;;;;;;19.98;60.76;100523.19;7384988;19;19939;-66
2023/07/15 01:56:51;;;;;;;5.18;2.63;;;;;;;20.00;60.64;100514.75;7387664;19;19994;-66
2023/07/15 01:59:20;;;;;;;2.65;2.10;;;;;;;19.99;60.83;100521.28;7384850;19;19939;-66
2023/07/15 02:01:49;;;;;;;8.30;3.13;;;;;;;19.99;60.61;100522.13;7387662;19;20383;-66
2023/07/15 02:04:18;;;;;;;5.28;2.60;;;;;;;19.98;60.14;100514.97;7386118;19;19919;-67
2023/07/15 02:06:47;;;;;;;5.65;2.30;;;;;;;20.01;60.11;100521.88;7385558;19;19967;-67
2023/07/15 02:09:15;;;;;;;6.40;2.78;;;;;;;20.03;59.10;100519.72;7385118;19;19922;-67
2023/07/15 02:11:45;;;;;;;4.88;2.08;;;;;;;20.04;59.15;100513.16;7385938;19;20336;-67
2023/07/15 02:14:16;;;;;;;4.13;1.95;;;;;;;20.03;58.46;100509.59;7390187;19;20314;-67
2023/07/15 02:16:45;;;;;;;3.83;2.28;;;;;;;20.04;59.22;100505.81;7387405;19;20314;-67
2023/07/15 02:19:13;;;;;;;5.47;2.35;;;;;;;20.05;59.35;100503.91;7384409;19;20566;-66
2023/07/15 02:21:42;;;;;;;3.83;2.33;;;;;;;20.06;59.12;100497.34;7384768;19;19923;-66
2023/07/15 02:24:11;;;;;;;4.45;2.25;;;;;;;20.05;58.43;100498.44;7383593;19;20291;-66
2023/07/15 02:26:39;;;;;;;4.38;2.35;;;;;;;20.06;59.07;100483.69;7386191;19;20338;-66
2023/07/15 02:29:08;;;;;;;4.03;2.75;;;;;;;20.06;58.71;100480.94;7384977;19;19922;-66
2023/07/15 02:31:39;;;;;;;9.00;2.28;;;;;;;20.06;59.33;100483.69;7386496;19;20326;-66
2023/07/15 02:34:08;;;;;;;4.30;2.30;;;;;;;20.05;59.33;100490.22;7385156;19;20565;-66
2023/07/15 02:36:38;;;;;;;7.50;2.40;;;;;;;20.04;59.18;100485.81;7389549;19;19930;-66
2023/07/15 02:39:08;;;;;;;5.07;2.40;;;;;;;20.01;59.76;100483.59;7387409;19;19922;-66
2023/07/15 02:41:36;;;;;;;5.25;2.13;;;;;;;19.98;59.97;100484.06;7385979;19;19922;-66
2023/07/15 02:44:05;;;;;;;4.80;2.20;;;;;;;19.97;59.91;100493.38;7383691;19;19919;-67
2023/07/15 02:46:34;;;;;;;4.30;2.30;;;;;;;19.93;60.20;100493.84;7384550;19;20001;-66
2023/07/15 02:49:06;;;;;;;2.83;2.10;;;;;;;19.86;60.23;100479.53;7385010;19;20234;-67
2023/07/15 02:51:35;;;;;;;6.45;2.63;;;;;;;19.81;60.30;100479.44;7383353;19;19918;-67
2023/07/15 02:54:04;;;;;;;4.82;2.17;;;;;;;19.78;60.51;100469.00;7384275;19;19985;-67
2023/07/15 02:56:33;;;;;;;5.55;2.25;;;;;;;19.74;60.67;100458.81;7386280;19;19926;-66
2023/07/15 02:59:01;;;;;;;4.53;2.20;;;;;;;19.67;60.19;100464.44;7382693;19;19947;-66
2023/07/15 03:01:30;;;;;;;3.70;2.17;;;;;;;19.65;59.95;100463.84;7384616;19;19926;-67
2023/07/15 03:03:59;;;;;;;4.25;2.00;;;;;;;19.63;60.33;100456.97;7383081;19;19918;-67
2023/07/15 03:06:32;;;;;;;2.40;1.90;;;;;;;19.61;59.87;100453.66;7384001;19;19937;-66
2023/07/15 03:09:01;;;;;;;7.70;2.45;;;;;;;19.58;60.03;100446.78;7384221;19;19922;-67
2023/07/15 03:11:31;;;;;;;2.88;2.30;;;;;;;19.57;60.42;100447.84;7349374;19;19926;-67
2023/07/15 03:14:01;;;;;;;5.28;2.17;;;;;;;19.56;59.75;100440.72;7356038;19;20292;-67
2023/07/15 03:16:30;;;;;;;4.68;2.50;;;;;;;19.54;60.00;100450.25;7353112;19;20289;-67
2023/07/15 03:18:58;;;;;;;3.60;2.70;;;;;;;19.53;59.80;100454.06;7347423;19;19919;-67
2023/07/15 03:21:29;;;;;;;8.23;2.10;;;;;;;19.52;59.95;100453.22;7352454;19;20276;-66
2023/07/15 03:23:58;;;;;;;5.65;2.30;;;;;;;19.49;59.77;100448.25;7350080;19;19922;-67
2023/07/15 03:26:27;;;;;;;4.72;1.80;;;;;;;19.45;59.88;100452.56;7351611;19;19918;-67
2023/07/15 03:28:55;;;;;;;10.85;2.63;;;;;;;19.41;60.10;100451.34;7351309;19;19922;-67
2023/07/15 03:31:24;;;;;;;6.10;2.53;;;;;;;19.36;60.57;100452.09;7351984;19;19923;-66
2023/07/15 03:33:53;;;;;;;4.82;2.60;;;;;;;19.35;60.52;100452.31;7355635;19;19923;-67
2023/07/15 03:36:22;;;;;;;8.23;2.60;;;;;;;19.30;60.32;100449.50;7383239;19;19919;-67
2023/07/15 03:38:53;;;;;;;4.55;2.25;;;;;;;19.25;60.44;100463.03;7377627;19;19930;-67
2023/07/15 03:41:22;;;;;;;4.70;2.30;;;;;;;19.17;60.71;100461.53;7383762;19;19950;-66
2023/07/15 03:43:51;;;;;;;4.55;2.97;;;;;;;19.09;60.73;100461.94;7381279;19;19926;-66
2023/07/15 03:46:19;;;;;;;4.82;2.40;;;;;;;19.05;60.58;100468.94;7380732;19;19930;-67
2023/07/15 03:48:48;;;;;;;4.13;2.40;;;;;;;19.02;60.76;100467.53;7383130;19;19922;-66
2023/07/15 03:51:16;;;;;;;5.90;2.03;;;;;;;19.00;60.59;100466.94;7382299;19;20006;-67
2023/07/15 03:53:45;;;;;;;5.13;2.25;;;;;;;18.98;60.54;100458.16;7383277;19;21110;-66
2023/07/15 03:56:16;;;;;;;4.78;2.20;;;;;;;18.98;60.86;100468.25;7382539;19;20510;-66
2023/07/15 03:58:45;;;;;;;4.70;2.58;;;;;;;18.96;61.15;100471.22;7382277;19;19926;-66
2023/07/15 04:01:14;;;;;;;7.70;2.97;;;;;;;18.93;61.10;100476.34;7379808;19;19926;-66
2023/07/15 04:03:42;;;;;;;8.15;2.65;;;;;;;18.92;61.18;100469.22;7383025;19;19923;-67
2023/07/15 04:06:11;;;;;;;3.25;2.42;;;;;;;18.93;61.10;100470.88;7382583;19;19918;-67
2023/07/15 04:08:40;;;;;;;4.00;2.80;;;;;;;18.92;61.19;100478.25;7383922;19;19918;-66
2023/07/15 04:11:10;;;;;;;6.28;2.42;;;;;;;18.92;60.86;100469.22;7383081;19;19932;-67
2023/07/15 04:13:41;;;;;;;5.47;2.33;;;;;;;18.90;61.07;100477.63;7388445;19;19953;-67
2023/07/15 04:16:10;;;;;;;3.15;2.10;;;;;;;18.88;61.17;100468.88;7380944;19;19915;-66
2023/07/15 04:18:39;;;;;;;5.28;2.40;;;;;;;18.87;61.36;100478.13;7384000;19;20632;-67
2023/07/15 04:21:07;;;;;;;5.32;2.30;;;;;;;18.86;61.31;100475.63;7380085;19;19970;-66
2023/07/15 04:23:36;;;;;;;3.97;2.20;;;;;;;18.85;61.67;100477.56;7381751;19;19918;-67
2023/07/15 04:26:06;;;;;;;5.75;2.50;;;;;;;18.85;61.39;100484.91;7382108;19;19925;-67
2023/07/15 04:28:34;;;;;;;4.45;2.55;;;;;;;18.86;61.21;100476.47;7382184;19;19926;-67
2023/07/15 04:31:06;;;;;;;6.93;2.72;;;;;;;18.88;61.40;100474.34;7381412;19;19922;-67
2023/07/15 04:33:34;;;;;;;5.47;2.53;;;;;;;18.87;61.19;100478.13;7383086;19;19922;-66
2023/07/15 04:36:03;;;;;;;3.88;2.38;;;;;;;18.91;61.32;100481.19;7385683;19;20324;-66
2023/07/15 04:38:32;;;;;;;4.63;2.13;;;;;;;18.93;61.11;100490.84;7381764;19;20285;-67
2023/07/15 04:41:00;;;;;;;3.80;1.95;;;;;;;18.94;61.15;100478.00;7379561;19;19941;-66
2023/07/15 04:43:29;;;;;;;4.00;1.98;;;;;;;18.96;61.37;100482.16;7382396;19;20005;-66
2023/07/15 04:45:58;;;;;;;2.83;2.17;;;;;;;19.00;61.11;100488.78;7381098;19;19943;-67
2023/07/15 04:48:30;;;;;;;3.38;2.15;;;;;;;19.02;61.20;100480.38;7383165;19;20481;-66
2023/07/15 04:50:59;;;;;;;3.95;2.15;;;;;;;19.07;60.93;100482.38;7381323;19;19959;-66
2023/07/15 04:53:28;;;;;;;4.82;1.77;;;;;;;19.11;60.65;100483.53;7380749;19;19946;-66
2023/07/15 04:55:57;;;;;;;4.32;1.90;;;;;;;19.16;61.06;100486.34;7380335;19;19927;-66
2023/07/15 04:58:25;;;;;;;6.00;1.83;;;;;;;19.20;60.97;100488.34;7382882;19;20458;-66
2023/07/15 05:00:54;;;;;;;2.85;1.85;;;;;;;19.26;60.90;100489.28;7375736;19;19952;-66
2023/07/15 05:03:22;;;;;;;7.85;2.42;;;;;;;19.32;60.58;100493.78;7381539;19;19922;-66
2023/07/15 05:05:54;;;;;;;3.75;2.42;;;;;;;19.42;60.87;100483.88;7379110;19;19930;-67
2023/07/15 05:08:23;;;;;;;5.00;1.88;;;;;;;19.55;60.61;100490.97;7381369;19;20865;-66
2023/07/15 05:10:52;;;;;;;4.45;2.47;;;;;;;19.63;60.45;100487.84;7380449;19;19939;-65
2023/07/15 05:13:20;;;;;;;7.03;2.13;;;;;;;19.72;59.71;100493.75;7386551;19;20337;-66
2023/07/15 05:15:49;;;;;;;4.47;2.00;;;;;;;19.78;59.63;100490.88;7378548;19;19955;-66
2023/07/15 05:18:18;;;;;;;5.70;2.30;;;;;;;19.86;59.38;100501.38;7380252;19;19919;-66
2023/07/15 05:20:47;;;;;;;6.22;2.08;;;;;;;19.92;59.82;100505.06;7378301;19;20344;-66
2023/07/15 05:23:18;;;;;;;6.18;2.22;;;;;;;20.01;59.54;100505.47;7380762;19;19959;-66
2023/07/15 05:25:47;;;;;;;5.93;1.85;;;;;;;20.06;58.75;100503.66;7378454;19;20282;-66
2023/07/15 05:28:16;;;;;;;2.95;1.90;;;;;;;20.11;58.37;100516.56;7382321;19;19926;-67
2023/07/15 05:30:44;;;;;;;4.35;2.30;;;;;;;20.16;58.25;100516.66;7379472;19;19982;-66
2023/07/15 05:33:13;;;;;;;3.42;1.90;;;;;;;20.20;58.49;100510.44;7378908;19;19922;-66
2023/07/15 05:35:42;;;;;;;2.67;1.80;;;;;;;20.27;58.01;100513.03;7383151;19;19930;-68
2023/07/15 05:38:11;;;;;;;8.32;1.80;;;;;;;20.35;57.52;100515.38;7380984;19;19922;-66
2023/07/15 05:40:45;;;;;;;4.00;2.00;;;;;;;20.38;57.38;100518.44;7378354;19;20522;-67
2023/07/15 05:43:14;;;;;;;3.13;2.00;;;;;;;20.44;57.41;100508.41;7380022;19;20285;-67
2023/07/15 05:45:43;;;;;;;4.28;2.13;;;;;;;20.48;57.35;100523.25;7378756;19;19926;-67
2023/07/15 05:48:11;;;;;;;3.95;2.10;;;;;;;20.52;57.45;100529.88;7381157;19;19939;-67
2023/07/15 05:50:40;;;;;;;5.88;2.00;;;;;;;20.55;57.28;100523.88;7379467;19;20576;-67
2023/07/15 05:53:10;;;;;;;4.68;2.50;;;;;;;20.56;57.66;100520.06;7379816;19;19918;-67
2023/07/15 05:55:39;;;;;;;5.05;1.80;;;;;;;20.60;57.00;100526.69;7378804;19;19947;-67
2023/07/15 05:58:12;;;;;;;5.18;2.22;;;;;;;20.63;57.04;100523.44;7377914;19;19922;-66
2023/07/15 06:00:41;;;;;;;6.88;1.95;;;;;;;20.66;57.69;100533.91;7376037;19;19926;-67
2023/07/15 06:03:10;;;;;;;5.25;1.92;;;;;;;20.68;57.69;100529.00;7380483;19;19927;-66
2023/07/15 06:05:38;;;;;;;3.22;2.25;;;;;;;20.71;57.75;100528.50;7378097;19;20630;-67
2023/07/15 06:08:07;;;;;;;4.63;2.15;;;;;;;20.76;57.33;100531.31;7378866;19;20308;-67
2023/07/15 06:10:36;;;;;;;3.53;1.92;;;;;;;20.78;57.24;100534.63;7376420;19;19929;-66
2023/07/15 06:13:04;;;;;;;5.05;2.08;;;;;;;20.81;57.63;100536.84;7376187;19;19919;-66
2023/07/15 06:15:36;;;;;;;5.68;2.22;;;;;;;20.87;57.35;100532.28;7377778;19;19923;-67
2023/07/15 06:18:05;;;;;;;5.30;2.10;;;;;;;20.93;58.01;100534.00;7379793;19;19918;-67
2023/07/15 06:20:34;;;;;;;3.65;2.20;;;;;;;20.99;57.29;100538.47;7376202;19;20368;-67
2023/07/15 06:23:03;;;;;;;3.63;2.47;;;;;;;21.04;57.71;100532.25;7377741;19;19932;-68
2023/07/15 06:25:31;;;;;;;4.80;1.90;;;;;;;21.09;56.88;100530.41;7376678;19;19930;-67
2023/07/15 06:28:00;;;;;;;3.70;2.00;;;;;;;21.15;57.34;100525.81;7378727;19;20337;-67
2023/07/15 06:30:29;;;;;;;2.58;2.00;;;;;;;21.20;57.41;100528.63;7377927;19;20375;-67
2023/07/15 06:33:00;;;;;;;2.70;2.20;;;;;;;21.26;56.77;100524.88;7379227;19;19927;-67
2023/07/15 06:35:28;;;;;;;4.90;2.25;;;;;;;21.31;56.66;100533.19;7383063;19;19926;-67
2023/07/15 06:37:57;;;;;;;3.90;2.30;;;;;;;21.37;56.86;100534.88;7380805;19;19927;-66
2023/07/15 06:40:26;;;;;;;3.97;2.75;;;;;;;21.44;57.16;100534.69;7383266;19;19997;-67
2023/07/15 06:42:55;;;;;;;4.22;2.35;;;;;;;21.51;56.80;100536.16;7386350;19;19940;-67
2023/07/15 06:45:24;;;;;;;4.13;2.00;;;;;;;21.58;56.86;100534.03;7384447;19;20653;-67
2023/07/15 06:47:52;;;;;;;5.43;2.42;;;;;;;21.64;56.56;100530.25;7382611;19;19926;-67
2023/07/15 06:50:24;;;;;;;6.05;2.50;;;;;;;21.68;56.48;100525.91;7384261;19;22534;-66
2023/07/15 06:52:52;;;;;;;3.58;2.00;;;;;;;21.74;56.91;100524.88;7383126;19;20352;-67
2023/07/15 06:55:21;;;;;;;7.50;2.30;;;;;;;21.82;57.00;100522.75;7383761;19;19918;-67
2023/07/15 06:57:50;;;;;;;4.72;2.03;;;;;;;21.86;56.59;100519.25;7369244;19;19922;-66
2023/07/15 07:00:19;;;;;;;3.90;2.00;;;;;;;21.91;56.97;100529.44;7347300;19;19949;-67
2023/07/15 07:02:48;;;;;;;4.15;2.03;;;;;;;22.01;57.89;100521.31;7350497;19;19926;-68
2023/07/15 07:05:16;;;;;;;2.28;1.55;;;;;;;22.06;57.64;100533.16;7373749;19;19934;-67
2023/07/15 07:07:48;;;;;;;4.45;2.10;;;;;;;22.11;57.60;100535.97;7379005;19;19922;-67
2023/07/15 07:10:16;;;;;;;;;;;;;;;22.02;57.80;100526.53;7383461;19;19927;-67
2023/07/15 07:12:46;;;;;;;3.55;1.98;;;;;;;22.15;57.37;100531.59;7385475;19;19918;-67
2023/07/15 07:15:15;;;;;;;2.33;1.88;;;;;;;22.23;58.29;100532.19;7387479;19;19957;-68
2023/07/15 07:17:43;;;;;;;3.80;1.85;;;;;;;22.27;57.79;100536.91;7384044;19;20275;-68
2023/07/15 07:20:13;;;;;;;3.45;1.80;;;;;;;22.32;58.25;100531.47;7382638;19;19973;-68
2023/07/15 07:22:42;;;;;;;4.32;1.98;;;;;;;22.40;58.22;100530.16;7383481;19;19915;-68
2023/07/15 07:25:14;;;;;;;3.50;1.90;;;;;;;22.47;58.31;100530.75;7381141;19;19953;-66
2023/07/15 07:27:42;;;;;;;1.90;1.40;;;;;;;22.54;58.02;100536.84;7385489;19;19948;-67
2023/07/15 07:30:12;;;;;;;2.63;1.98;;;;;;;22.60;57.88;100531.13;7383537;19;19918;-67
2023/07/15 07:32:40;;;;;;;3.20;1.70;;;;;;;22.67;58.24;100528.16;7385352;19;19922;-67
2023/07/15 07:35:10;;;;;;;3.85;1.60;;;;;;;22.72;57.79;100535.63;7387533;19;19922;-67
2023/07/15 07:37:38;;;;;;;2.80;1.77;;;;;;;22.78;58.01;100538.13;7384339;19;20259;-67
2023/07/15 07:40:09;;;;;;;3.22;2.13;;;;;;;22.81;57.42;100531.28;7382029;19;19966;-67
2023/07/15 07:42:40;;;;;;;4.20;1.70;;;;;;;22.85;57.02;100541.47;7384575;19;19968;-67
2023/07/15 07:45:15;;;;;;;4.00;2.33;;;;;;;22.89;57.21;100545.34;7382653;19;20389;-67
2023/07/15 07:47:44;;;;;;;5.68;1.63;;;;;;;22.95;57.19;100552.50;7384120;19;19943;-67
2023/07/15 07:50:13;;;;;;;3.60;2.03;;;;;;;22.99;57.21;100539.09;7381476;19;19943;-68
2023/07/15 07:52:41;;;;;;;3.40;1.50;;;;;;;23.05;57.27;100549.00;7380537;19;19926;-68
2023/07/15 07:55:11;;;;;;;2.47;1.60;;;;;;;23.09;57.40;100550.13;7382279;19;19922;-67
2023/07/15 07:57:42;;;;;;;3.28;1.48;;;;;;;23.10;57.88;100551.78;7384555;19;20008;-68
2023/07/15 08:00:11;;;;;;;4.22;1.33;;;;;;;23.15;57.48;100545.47;7381787;19;19923;-67
2023/07/15 08:02:40;;;;;;;3.47;1.65;;;;;;;23.16;58.04;100545.22;7382695;19;19977;-67
2023/07/15 08:05:10;;;;;;;4.38;1.65;;;;;;;23.23;58.23;100550.47;7384839;19;19926;-67
2023/07/15 08:07:39;;;;;;;2.03;1.42;;;;;;;23.33;57.96;100556.00;7374893;19;20962;-68
2023/07/15 08:10:08;;;;;;;1.63;1.48;;;;;;;23.38;57.31;100551.38;7374927;19;19923;-67
2023/07/15 08:12:37;;;;;;;1.33;1.05;;;;;;;23.43;57.58;100562.38;7375774;19;19930;-67
2023/07/15 08:15:09;;;;;;;3.33;1.38;;;;;;;23.45;56.57;100560.22;7384967;19;19940;-68
2023/07/15 08:17:38;;;;;;;3.38;1.48;;;;;;;23.47;56.66;100566.25;7383596;19;19918;-67
2023/07/15 08:20:09;;;;;;;2.97;1.30;;;;;;;23.52;57.17;100565.44;7380406;19;19923;-67
2023/07/15 08:22:37;;;;;;;2.88;1.63;;;;;;;23.59;57.30;100565.22;7378228;19;21246;-67
2023/07/15 08:25:08;;;;;;;3.72;1.13;;;;;;;23.68;56.32;100572.69;7381225;19;19938;-68
2023/07/15 08:27:36;;;;;;;2.28;1.48;;;;;;;23.71;56.18;100585.06;7382754;19;19918;-68
2023/07/15 08:30:08;;;;;;;2.45;1.35;;;;;;;23.74;56.19;100568.00;7381062;19;19930;-67
2023/07/15 08:32:37;;;;;;;2.58;1.35;;;;;;;23.78;56.20;100586.44;7381004;19;19982;-67
2023/07/15 08:35:07;;;;;;;4.38;1.20;;;;;;;23.83;56.20;100583.72;7385202;19;20308;-67
2023/07/15 08:37:36;;;;;;;2.63;1.10;;;;;;;23.84;56.29;100592.78;7376282;19;19922;-67
2023/07/15 08:40:06;;;;;;;1.83;1.27;;;;;;;23.88;56.72;100593.91;7378992;19;19923;-67
2023/07/15 08:42:37;;;;;;;2.38;1.40;;;;;;;23.98;56.29;100590.34;7376634;19;20248;-67
2023/07/15 08:45:09;;;;;;;;;;;;;;;24.01;57.05;100598.06;7377941;19;19919;-67
2023/07/15 08:47:40;;;;;;;2.50;1.17;;;;;;;24.16;55.74;100600.88;7379625;19;19922;-67
2023/07/15 08:50:15;;;;;;;2.47;1.60;;;;;;;24.19;55.14;100592.91;7378319;19;19939;-67
2023/07/15 08:52:45;;;;;;;2.60;1.10;;;;;;;24.22;55.79;100575.81;7380522;19;19922;-67
2023/07/15 08:55:15;;;;;;;4.93;1.45;;;;;;;24.24;55.60;100578.31;7378468;19;19937;-67
2023/07/15 08:57:43;;;;;;;2.55;1.60;;;;;;;24.27;55.50;100581.34;7378016;19;19922;-67
2023/07/15 09:00:15;;;;;;;2.35;1.30;;;;;;;24.29;55.68;100581.88;7376923;19;20281;-67
2023/07/15 09:02:44;;;;;;;1.25;1.08;;;;;;;24.28;55.54;100584.91;7391909;19;19941;-67
2023/07/15 09:05:13;;;;;;;3.92;1.55;;;;;;;24.31;56.40;100585.19;7402597;19;20376;-68
2023/07/15 09:07:51;;;;;;;2.80;1.75;;;;;;;24.37;55.00;100584.09;7398334;19;19922;-67
2023/07/15 09:10:20;;;;;;;2.92;1.58;;;;;;;24.44;55.26;100589.31;7398494;19;19926;-68
2023/07/15 09:12:50;;;;;;;1.80;1.38;;;;;;;24.59;55.10;100586.59;7402518;19;19962;-68
2023/07/15 09:15:21;;;;;;;3.53;1.88;;;;;;;24.68;55.39;100582.13;7403212;19;19925;-67
2023/07/15 09:17:53;;;;;;;;;;;;;;;24.65;55.08;100596.47;7402350;19;19935;-68
2023/07/15 09:20:24;;;;;;;5.20;1.40;;;;;;;24.87;54.46;100590.69;7403021;19;19986;-67
2023/07/15 09:22:53;;;;;;;1.95;1.08;;;;;;;24.98;53.93;100592.31;7398943;19;19943;-67
2023/07/15 09:25:23;;;;;;;2.20;1.25;;;;;;;25.05;54.61;100587.34;7402261;19;20360;-68
2023/07/15 09:27:52;;;;;;;2.28;1.50;;;;;;;25.07;54.47;100571.34;7402754;19;19923;-68
2023/07/15 09:30:24;;;;;;;2.08;1.35;;;;;;;25.15;54.27;100592.81;7401669;19;19935;-68
2023/07/15 09:32:52;;;;;;;2.75;1.50;;;;;;;25.21;53.81;100597.22;7390117;19;20359;-67
2023/07/15 09:35:22;;;;;;;2.08;1.38;;;;;;;25.22;53.83;100582.34;7383022;19;19919;-68
2023/07/15 09:37:51;;;;;;;2.15;1.20;;;;;;;25.25;53.96;100590.03;7376914;19;20297;-67
2023/07/15 09:40:20;;;;;;;2.13;1.40;;;;;;;25.30;53.42;100592.78;7379639;19;19930;-68
2023/07/15 09:42:53;;;;;;;3.03;1.20;;;;;;;25.39;53.57;100589.44;7377991;19;19915;-68
2023/07/15 09:45:38;;;;;;;3.20;1.33;;;;;;;25.47;53.23;100599.91;7379322;19;19956;-68
2023/07/15 09:48:08;;;;;;;3.10;1.23;;;;;;;25.52;53.26;100602.63;7375097;19;19931;-68
2023/07/15 09:50:39;;;;;;;3.78;1.27;;;;;;;25.49;52.54;100608.72;7379002;19;19964;-68
2023/07/15 09:53:09;;;;;;;2.67;1.30;;;;;;;25.61;52.98;100601.81;7392032;19;19919;-68
2023/07/15 09:55:39;;;;;;;2.53;1.10;;;;;;;25.71;52.99;100614.75;7398379;19;19925;-68
2023/07/15 09:58:15;;;;;;;2.40;1.33;;;;;;;25.94;52.66;100621.50;7399645;19;19990;-68
2023/07/15 10:00:51;;;;;;;3.53;1.42;;;;;;;25.92;52.76;100615.44;7396878;19;19923;-67
2023/07/15 10:03:25;;;;;;;3.60;1.75;;;;;;;26.09;52.78;100615.91;7392255;19;19922;-68
2023/07/15 10:05:54;;;;;;;2.25;1.40;;;;;;;26.10;53.37;100607.31;7398559;19;19919;-67
2023/07/15 10:08:24;;;;;;;4.57;1.40;;;;;;;26.17;52.09;100620.81;7397036;19;19922;-67
2023/07/15 10:10:52;;;;;;;2.42;1.40;;;;;;;26.26;51.91;100612.78;7399006;19;19923;-68
2023/07/15 10:13:22;;;;;;;2.78;1.25;;;;;;;26.22;51.30;100612.53;7399111;19;19933;-68
2023/07/15 10:15:54;;;;;;;3.30;1.63;;;;;;;26.19;50.83;100624.09;7407071;19;19926;-68
2023/07/15 10:18:24;;;;;;;4.03;1.58;;;;;;;26.30;50.78;100627.66;7405865;19;19931;-68
2023/07/15 10:20:57;;;;;;;2.78;1.30;;;;;;;26.45;49.68;100613.72;7403440;19;19923;-68
2023/07/15 10:23:29;;;;;;;3.72;1.85;;;;;;;26.66;48.53;100608.88;7388065;19;19926;-68
2023/07/15 10:26:05;;;;;;;4.40;1.20;;;;;;;26.67;47.56;100616.84;7384835;19;20267;-68
2023/07/15 10:28:36;;;;;;;1.98;1.40;;;;;;;26.85;47.88;100629.16;7384805;19;19926;-68
2023/07/15 10:31:14;;;;;;;1.80;1.27;;;;;;;26.93;47.32;100615.53;7383752;19;19993;-68
2023/07/15 10:33:56;;;;;;;;;;;;;;;26.79;47.18;100602.66;7387576;19;19941;-69
2023/07/15 10:36:39;;;;;;;3.67;1.35;;;;;;;26.67;46.92;100603.03;7389807;19;19929;-68
2023/07/15 10:39:16;;;;;;;3.20;1.20;;;;;;;26.74;46.98;100609.06;7383946;19;20292;-67
2023/07/15 10:41:47;;;;;;;1.50;1.27;;;;;;;26.78;47.75;100618.44;7388448;19;19971;-67
2023/07/15 10:44:20;;;;;;;2.50;1.45;;;;;;;26.71;47.89;100628.97;7384342;19;19918;-69
2023/07/15 10:46:54;;;;;;;2.13;1.27;;;;;;;26.54;47.99;100623.88;7388505;19;20281;-67
2023/07/15 10:49:24;;;;;;;3.88;1.52;;;;;;;26.37;48.60;100628.16;7407137;19;19930;-68
2023/07/15 10:51:54;;;;;;;2.10;1.23;;;;;;;26.32;48.60;100622.69;7405206;19;19935;-68
2023/07/15 10:54:24;;;;;;;6.47;1.50;;;;;;;26.48;48.33;100629.75;7407037;19;19918;-69
2023/07/15 10:56:53;;;;;;;4.95;1.50;;;;;;;26.46;48.40;100632.78;7403537;19;19926;-69
2023/07/15 10:59:23;;;;;;;6.93;1.52;;;;;;;26.40;48.56;100628.44;7406923;19;19922;-69
2023/07/15 11:01:55;;;;;;;2.00;1.20;;;;;;;26.33;48.75;100621.56;7405702;19;20814;-69
2023/07/15 11:04:24;;;;;;;2.45;1.42;;;;;;;26.37;48.79;100622.63;7404452;19;20380;-68
2023/07/15 11:06:53;;;;;;;1.42;1.13;;;;;;;26.40;49.65;100628.44;7405460;19;19959;-68
2023/07/15 11:09:23;;;;;;;2.30;1.40;;;;;;;26.38;48.99;100619.59;7403349;19;19927;-67
2023/07/15 11:11:52;;;;;;;2.30;1.23;;;;;;;26.38;49.48;100613.22;7404937;19;20361;-67
2023/07/15 11:14:26;;;;;;;2.53;1.40;;;;;;;26.47;49.55;100617.03;7406214;19;20265;-67
2023/07/15 11:16:59;;;;;;;3.33;1.02;;;;;;;26.54;50.16;100618.34;7399386;19;19922;-68
2023/07/15 11:19:29;;;;;;;2.33;1.10;;;;;;;26.60;49.35;100611.66;7384250;19;20294;-68
2023/07/15 11:21:59;;;;;;;2.35;1.00;;;;;;;26.74;49.32;100620.13;7383727;19;19925;-68
2023/07/15 11:24:28;;;;;;;2.40;1.30;;;;;;;26.84;48.70;100620.00;7379624;19;19926;-68
2023/07/15 11:27:02;;;;;;;4.72;1.23;;;;;;;26.85;48.96;100604.28;7383414;19;19922;-68
2023/07/15 11:29:31;;;;;;;4.20;0.95;;;;;;;26.78;49.30;100612.91;7380838;19;19918;-68
2023/07/15 11:32:02;;;;;;;2.38;1.20;;;;;;;26.63;48.13;100610.25;7382987;19;19933;-68
2023/07/15 11:34:32;;;;;;;2.22;1.33;;;;;;;26.52;48.77;100619.75;7382691;19;19942;-68
2023/07/15 11:37:05;;;;;;;2.03;1.20;;;;;;;26.42;49.02;100597.72;7387912;19;22467;-68
2023/07/15 11:39:34;;;;;;;1.90;1.20;;;;;;;26.32;49.67;100608.88;7380910;19;19933;-68